Harefield, United Kingdom
Current Conditions -  °F | °C
As of 12:50 AM on Thursday 23 Oct 2014 (Local Time) from EGWU Reporting Station
Scattered Clouds Scattered Clouds  
Wind Chill: 11°   Ceiling: Unl
Heat Index: 11°   Visibility: 6mi
Dew Point:   Wind: 6mph
Humidity: 82%   Direction: 220°SW
Pressure: 30.18"   Gusts: NA
Location:  51.6°N, 0.48°W
Report Text: EGWU 222350Z AUTO 22005KT 9999 // SCT030/// SCT150/// 11/08 Q1022
Loading
Personal Weather Stations






























Interactive Weather Map
Tropical Storm Tracking
New forecast layout! Learn more

10-Day Weather Forecast

Advertisements
Track Severe Weather on mobile